Agra, India
Current Conditions -  °F | °C
As of 10:00 AM on Wednesday 26 Nov 2014 (Local Time) from VIDP Reporting Station
Smoke Smoke  
Wind Chill: 64°   Ceiling: Unl
Heat Index: 64°   Visibility: 1.2mi
Dew Point: 39°   Wind: 7mph
Humidity: 40%   Direction: 270°W
Pressure: 29.94"   Gusts: NA
Location:  27.18°N, 78.01°E
Report Text: VIDP 260500Z 27006KT 2000 FU NSC 18/04 Q1014 NOSIG
Loading
Personal Weather Stations






























Interactive Weather Map New forecast layout! Learn more

10-Day Weather Forecast

Advertisements
Track Severe Weather on mobile